Time;durP1;ratioP1;P1;durP2;ratioP2;P2;SDS_P1;SDS_P2;PMS_P1;PMS_P2;Temp;Humidity;BMP_temperature;BMP_pressure;BME280_temperature;BME280_humidity;BME280_pressure;Samples;Min_cycle;Max_cycle;Signal;HPM_P1;HPM_P2
2022/08/24 00:02:25;;;;;;;;;44.50;36.50;;;;;27.40;56.02;98855.72;6250222;27;97486;-60
2022/08/24 00:05:28;;;;;;;;;48.50;40.00;;;;;27.40;56.04;98852.16;6251561;27;97544;-60
2022/08/24 00:08:32;;;;;;;;;45.00;35.80;;;;;27.40;56.36;98847.41;6253436;27;97420;-57
2022/08/24 00:11:37;;;;;;;;;43.40;36.00;;;;;27.24;56.29;98828.94;6245643;27;97417;-59
2022/08/24 00:14:40;;;;;;;;;42.50;36.25;;;;;27.28;56.62;98850.06;6252558;27;97478;-58
2022/08/24 00:17:44;;;;;;;;;45.80;38.60;;;;;27.29;56.12;98843.41;6239583;27;97067;-60
2022/08/24 00:20:47;;;;;;;;;42.50;36.00;;;;;27.31;56.48;98848.59;6251237;27;97752;-59
2022/08/24 00:23:51;;;;;;;;;44.75;36.00;;;;;27.33;56.44;98843.53;6252539;27;97335;-58
2022/08/24 00:26:55;;;;;;;;;48.50;38.50;;;;;27.31;56.06;98846.66;6236603;27;98669;-64
2022/08/24 00:29:59;;;;;;;;;47.75;37.75;;;;;27.31;56.22;98849.44;6251129;27;98011;-60
2022/08/24 00:33:03;;;;;;;;;45.00;38.00;;;;;27.32;56.41;98855.78;6249656;27;96685;-57
2022/08/24 00:36:08;;;;;;;;;45.00;36.00;;;;;27.32;55.96;98850.25;6238695;27;97095;-61
2022/08/24 00:39:12;;;;;;;;;44.75;36.75;;;;;27.32;55.82;98867.63;6245272;27;97603;-66
2022/08/24 00:42:17;;;;;;;;;40.00;33.80;;;;;27.32;55.67;98861.31;6246514;27;97479;-61
2022/08/24 00:45:23;;;;;;;;;46.75;38.75;;;;;27.33;56.02;98868.44;6244945;27;96818;-56
2022/08/24 00:48:31;;;;;;;;;41.00;34.00;;;;;27.32;56.03;98867.63;6237611;27;97505;-61
2022/08/24 00:51:40;;;;;;;;;38.00;33.00;;;;;27.17;56.05;98846.84;6240407;27;97094;-59
2022/08/24 00:54:49;;;;;;;;;42.00;33.60;;;;;27.32;55.68;98875.94;6238565;27;97481;-60
2022/08/24 00:57:59;;;;;;;;;40.40;33.00;;;;;27.30;55.67;98881.00;6237052;27;96932;-60
2022/08/24 01:01:05;;;;;;;;;33.75;31.75;;;;;27.29;55.94;98887.69;6238013;27;97430;-58
2022/08/24 01:04:16;;;;;;;;;37.40;32.40;;;;;27.30;55.87;98886.56;6255255;27;96867;-58
2022/08/24 01:07:22;;;;;;;;;37.00;33.00;;;;;27.31;56.24;98890.13;6249961;27;97478;-60
2022/08/24 01:10:33;;;;;;;;;39.00;32.00;;;;;27.31;55.92;98887.38;6251434;27;96967;-60
2022/08/24 01:13:39;;;;;;;;;37.50;33.00;;;;;27.12;55.76;98860.88;6251248;27;97664;-64
2022/08/24 01:20:06;;;;;;;;;35.00;30.00;;;;;27.29;55.71;98887.69;6254871;27;98154;-59
2022/08/24 01:23:18;;;;;;;;;37.60;33.00;;;;;27.31;55.91;98888.19;6259679;27;96727;-58
2022/08/24 01:26:28;;;;;;;;;40.00;34.00;;;;;27.32;56.12;98889.78;6247157;27;97380;-61
2022/08/24 01:29:32;;;;;;;;;37.00;31.50;;;;;27.33;55.94;98887.81;6247820;27;96992;-61
2022/08/24 01:32:35;;;;;;;;;40.20;33.40;;;;;27.33;56.08;98896.13;6257713;27;98623;-60
2022/08/24 01:35:39;;;;;;;;;40.00;33.00;;;;;27.32;55.81;98903.63;6257770;27;97135;-58
2022/08/24 01:38:44;;;;;;;;;37.60;32.00;;;;;27.31;56.33;98901.22;6248937;27;97532;-57
2022/08/24 01:41:50;;;;;;;;;38.00;32.00;;;;;27.30;56.22;98900.41;6247072;27;97418;-60
2022/08/24 01:44:53;;;;;;;;;38.20;33.00;;;;;27.30;56.34;98905.13;6245158;27;97333;-58
2022/08/24 01:47:57;;;;;;;;;37.20;32.20;;;;;27.32;56.00;98914.69;6249050;27;97160;-61
2022/08/24 01:51:03;;;;;;;;;44.60;35.20;;;;;27.32;55.86;98909.16;6242294;27;97349;-59
2022/08/24 01:54:07;;;;;;;;;39.00;32.00;;;;;27.31;55.94;98910.31;6248537;27;97359;-58
2022/08/24 01:57:12;;;;;;;;;44.00;36.00;;;;;27.33;55.98;98912.75;6249559;27;97462;-59
2022/08/24 02:00:19;;;;;;;;;40.00;33.00;;;;;27.35;55.86;98914.06;6240102;27;97423;-59
2022/08/24 02:03:23;;;;;;;;;42.40;34.20;;;;;27.35;56.22;98910.47;6254058;27;97883;-60
2022/08/24 02:06:34;;;;;;;;;49.60;41.00;;;;;27.36;56.09;98920.41;6264991;27;97408;-59
2022/08/24 02:09:41;;;;;;;;;40.20;33.00;;;;;27.37;56.29;98922.00;6243267;27;98533;-60
2022/08/24 02:12:56;;;;;;;;;42.60;33.20;;;;;27.16;55.99;98888.72;6263320;27;97470;-60
2022/08/24 02:16:01;;;;;;;;;44.00;35.80;;;;;27.23;56.24;98910.34;6251734;27;97506;-57
2022/08/24 02:19:07;;;;;;;;;40.80;33.40;;;;;27.36;55.77;98926.75;6258614;27;97382;-62
2022/08/24 02:22:11;;;;;;;;;46.50;36.00;;;;;27.34;56.19;98919.91;6234459;27;97991;-59
2022/08/24 02:25:15;;;;;;;;;41.00;33.00;;;;;27.32;56.16;98925.78;6268151;27;97557;-60
2022/08/24 02:28:20;;;;;;;;;44.20;35.00;;;;;27.29;55.75;98931.97;6262364;27;97951;-59
2022/08/24 02:31:24;;;;;;;;;45.00;35.20;;;;;27.31;55.88;98928.88;6278397;27;96998;-60
2022/08/24 02:34:27;;;;;;;;;45.00;36.20;;;;;27.30;56.36;98927.25;6241476;27;97667;-59
2022/08/24 02:37:31;;;;;;;;;46.00;36.00;;;;;27.29;55.87;98926.44;6245972;27;96818;-61
2022/08/24 02:40:36;;;;;;;;;47.25;37.25;;;;;27.29;56.26;98928.41;6251528;27;98626;-60
2022/08/24 02:43:41;;;;;;;;;49.00;40.00;;;;;27.28;55.97;98922.03;6247099;27;97201;-60
2022/08/24 02:46:45;;;;;;;;;46.60;36.40;;;;;27.27;56.10;98925.16;6237614;27;96879;-61
2022/08/24 02:49:48;;;;;;;;;44.00;32.75;;;;;27.12;56.36;98907.91;6242285;27;97984;-59
2022/08/24 02:52:53;;;;;;;;;44.80;35.00;;;;;27.26;56.52;98926.31;6257273;27;96914;-61
2022/08/24 02:55:58;;;;;;;;;45.60;38.00;;;;;27.26;56.55;98929.88;6260445;27;97006;-61
2022/08/24 02:59:04;;;;;;;;;40.00;34.50;;;;;27.15;56.50;98920.31;6227230;27;97047;-59
2022/08/24 03:02:07;;;;;;;;;50.20;40.00;;;;;27.28;56.53;98940.59;6247527;27;97442;-59
2022/08/24 03:05:11;;;;;;;;;42.20;35.40;;;;;27.23;56.54;98927.75;6248494;27;97581;-62
2022/08/24 03:08:15;;;;;;;;;45.00;35.00;;;;;27.31;56.11;98939.97;6239503;27;97079;-60
2022/08/24 03:11:19;;;;;;;;;40.20;34.80;;;;;27.28;56.13;98938.66;6255163;27;99736;-59
2022/08/24 03:14:28;;;;;;;;;47.20;37.60;;;;;27.31;56.40;98940.78;6260032;27;96620;-62
2022/08/24 03:17:32;;;;;;;;;45.00;38.00;;;;;27.32;56.30;98944.38;6251444;27;98094;-59
2022/08/24 03:20:36;;;;;;;;;44.00;36.00;;;;;27.30;56.52;98935.56;6249896;27;97582;-59
2022/08/24 03:23:39;;;;;;;;;46.75;38.75;;;;;27.32;56.37;98938.81;6238861;27;96653;-59
2022/08/24 03:26:42;;;;;;;;;45.00;36.00;;;;;27.31;56.54;98940.78;6238528;27;96879;-59
2022/08/24 03:29:49;;;;;;;;;52.00;40.25;;;;;27.31;56.61;98938.00;6254822;27;97107;-58
2022/08/24 03:32:53;;;;;;;;;47.50;37.50;;;;;27.30;56.66;98943.88;6257194;27;97920;-60
2022/08/24 03:35:57;;;;;;;;;43.00;35.00;;;;;27.30;57.22;98939.16;6260581;27;97433;-56
2022/08/24 03:39:01;;;;;;;;;49.80;40.80;;;;;27.31;56.65;98939.97;6254404;27;97472;-59
2022/08/24 03:42:05;;;;;;;;;48.00;38.00;;;;;27.29;57.01;98937.50;6237898;27;97006;-60
2022/08/24 03:45:11;;;;;;;;;50.00;41.20;;;;;27.29;56.93;98937.50;6240636;27;97523;-60
2022/08/24 03:48:15;;;;;;;;;51.00;40.40;;;;;27.20;56.97;98924.84;6252801;27;97968;-59
2022/08/24 03:51:22;;;;;;;;;53.00;41.00;;;;;27.26;57.20;98946.50;6251085;27;98696;-59
2022/08/24 03:54:26;;;;;;;;;56.60;45.20;;;;;27.24;56.89;98940.47;6238449;28;97438;-60
2022/08/24 03:57:30;;;;;;;;;56.00;44.00;;;;;27.22;57.08;98939.19;6242554;27;98555;-59
2022/08/24 04:00:35;;;;;;;;;50.00;39.75;;;;;27.22;56.89;98939.19;6258205;27;98153;-61
2022/08/24 04:03:43;;;;;;;;;52.40;41.00;;;;;27.21;57.12;98934.78;6247774;27;97411;-59
2022/08/24 04:06:48;;;;;;;;;57.00;45.00;;;;;27.21;57.43;98943.09;6226292;27;96762;-59
2022/08/24 04:09:51;;;;;;;;;56.50;45.00;;;;;27.18;57.49;98930.69;6259094;27;97541;-60
2022/08/24 04:12:55;;;;;;;;;57.00;45.00;;;;;27.20;57.28;98933.97;6243923;27;96869;-61
2022/08/24 04:16:04;;;;;;;;;53.40;42.20;;;;;27.17;57.49;98952.03;6237124;27;96939;-61
2022/08/24 04:19:08;;;;;;;;;56.60;45.60;;;;;27.17;57.84;98949.25;6227619;27;98910;-60
2022/08/24 04:22:12;;;;;;;;;54.60;44.40;;;;;27.17;57.28;98943.72;6238311;27;96459;-65
2022/08/24 04:25:15;;;;;;;;;56.50;44.50;;;;;27.16;57.40;98938.53;6256966;27;97121;-59
2022/08/24 04:28:21;;;;;;;;;55.00;44.00;;;;;27.15;57.34;98939.69;6249590;27;96648;-61
2022/08/24 04:31:27;;;;;;;;;51.80;41.00;;;;;27.16;57.68;98944.06;6225450;27;97714;-64
2022/08/24 04:34:31;;;;;;;;;55.20;42.20;;;;;27.17;57.62;98942.13;6242199;27;96784;-60
2022/08/24 04:37:34;;;;;;;;;50.00;40.00;;;;;27.17;57.62;98946.50;6244297;27;97304;-60
2022/08/24 04:40:39;;;;;;;;;55.40;44.00;;;;;27.18;57.56;98941.78;6239152;27;99005;-59
2022/08/24 04:43:44;;;;;;;;;53.00;41.50;;;;;27.18;57.53;98947.31;6251629;27;96889;-61
2022/08/24 04:46:50;;;;;;;;;60.00;46.50;;;;;27.18;57.47;98939.00;6260151;27;98114;-60
2022/08/24 04:49:55;;;;;;;;;58.00;47.25;;;;;27.17;57.19;98942.13;6236057;27;97368;-61
2022/08/24 04:52:58;;;;;;;;;59.40;45.00;;;;;27.19;57.64;98940.63;6237256;27;97807;-59
2022/08/24 04:56:02;;;;;;;;;58.00;45.60;;;;;27.19;57.72;98946.16;6242625;27;97255;-61
2022/08/24 04:59:07;;;;;;;;;57.20;44.00;;;;;27.22;57.23;98941.94;6250205;27;96933;-61
2022/08/24 05:02:13;;;;;;;;;56.75;44.00;;;;;27.24;57.36;98934.91;6246953;27;97298;-60
2022/08/24 05:05:18;;;;;;;;;51.40;39.00;;;;;27.24;57.46;98937.69;6241004;27;96983;-62
2022/08/24 05:08:22;;;;;;;;;53.00;41.40;;;;;27.23;56.97;98938.81;6240440;27;96609;-59
2022/08/24 05:11:26;;;;;;;;;52.00;41.00;;;;;27.25;57.18;98936.56;6245971;27;96556;-59
2022/08/24 05:14:30;;;;;;;;;49.00;39.00;;;;;27.26;57.28;98932.66;6235904;27;96678;-60
2022/08/24 05:17:35;;;;;;;;;45.00;36.00;;;;;27.29;57.27;98940.28;6245913;27;97493;-60
2022/08/24 05:20:41;;;;;;;;;46.00;35.75;;;;;27.24;57.25;98928.56;6256076;27;98029;-60
2022/08/24 05:23:45;;;;;;;;;51.50;40.50;;;;;27.36;57.04;98937.84;6252358;27;97637;-59
2022/08/24 05:26:51;;;;;;;;;45.40;37.60;;;;;27.39;56.56;98948.22;6253787;27;97504;-59
2022/08/24 05:29:56;;;;;;;;;44.40;35.00;;;;;27.42;57.02;98949.50;6237369;27;96640;-59
2022/08/24 05:33:01;;;;;;;;;46.00;37.00;;;;;27.44;56.84;98947.25;6236370;27;97514;-61
2022/08/24 05:36:05;;;;;;;;;49.50;40.00;;;;;27.47;56.69;98949.34;6259649;27;96582;-60
2022/08/24 05:39:11;;;;;;;;;44.40;35.20;;;;;27.49;56.41;98958.97;6260527;27;97488;-61
2022/08/24 05:42:16;;;;;;;;;45.00;36.00;;;;;27.53;56.60;98965.47;6239445;27;97559;-59
2022/08/24 05:45:23;;;;;;;;;51.75;41.00;;;;;27.56;56.51;98970.34;6239479;28;97536;-62
2022/08/24 05:48:28;;;;;;;;;48.60;38.20;;;;;27.61;56.44;98963.03;6239231;27;97540;-61
2022/08/24 05:51:32;;;;;;;;;48.50;39.00;;;;;27.63;56.04;98961.53;6240470;27;97093;-61
2022/08/24 05:54:40;;;;;;;;;45.00;36.00;;;;;27.68;55.75;98966.88;6239354;27;96926;-61
2022/08/24 05:57:46;;;;;;;;;50.40;40.00;;;;;27.71;55.97;98966.22;6255821;27;97885;-59
2022/08/24 06:00:58;;;;;;;;;42.40;31.00;;;;;27.76;55.44;98984.63;6242452;27;97590;-61
2022/08/24 06:04:05;;;;;;;;;37.50;32.00;;;;;27.61;55.86;98961.06;6271200;27;96500;-59
2022/08/24 06:07:10;;;;;;;;;36.00;32.00;;;;;27.82;55.70;98969.44;6275579;27;97165;-62
2022/08/24 06:10:17;;;;;;;;;41.25;33.00;;;;;27.86;55.19;98973.16;6274361;27;98024;-62
2022/08/24 06:13:39;;;;;;;;;39.60;31.60;;;;;27.89;55.09;98966.97;6257941;27;97060;-61
2022/08/24 06:16:46;;;;;;;;;36.20;27.20;;;;;27.93;55.12;98959.59;6255963;27;96964;-62
2022/08/24 06:19:51;;;;;;;;;38.80;32.60;;;;;27.98;55.36;98963.00;6238817;27;97190;-62
2022/08/24 06:22:54;;;;;;;;;41.00;33.00;;;;;28.01;55.17;98967.06;6237980;28;99026;-65
2022/08/24 06:29:25;;;;;;;;;36.00;32.00;;;;;28.00;54.68;98977.31;6253721;27;97339;-62
2022/08/24 06:32:32;;;;;;;;;36.80;30.20;;;;;28.04;55.16;98980.25;6254582;27;97489;-60
2022/08/24 06:35:37;;;;;;;;;35.00;30.20;;;;;28.07;54.89;98978.75;6247231;27;96765;-59
2022/08/24 06:38:46;;;;;;;;;32.25;29.00;;;;;28.07;54.31;98982.34;6238729;28;98144;-63
2022/08/24 06:41:52;;;;;;;;;40.75;31.00;;;;;28.07;54.87;98978.75;6257642;27;96710;-62
2022/08/24 06:45:05;;;;;;;;;33.40;30.00;;;;;28.08;54.87;98988.72;6262189;27;97592;-61
2022/08/24 06:48:08;;;;;;;;;37.60;32.00;;;;;28.10;54.70;98992.75;6238014;28;97736;-60
2022/08/24 06:51:16;;;;;;;;;38.20;34.00;;;;;28.17;54.21;98995.03;6260771;27;97145;-56
2022/08/24 06:54:20;;;;;;;;;43.00;34.00;;;;;28.22;54.46;99003.97;6238176;28;98113;-60
2022/08/24 06:57:24;;;;;;;;;38.20;31.60;;;;;28.29;54.09;99003.47;6254281;27;96801;-61
2022/08/24 07:00:29;;;;;;;;;39.25;35.00;;;;;28.35;54.09;99005.69;6256435;27;97178;-60
2022/08/24 07:03:32;;;;;;;;;38.75;34.75;;;;;28.43;54.09;99004.03;6251149;27;96777;-61
2022/08/24 07:06:51;;;;;;;;;32.50;29.25;;;;;28.50;53.57;98995.16;6251093;27;96661;-63
2022/08/24 07:09:54;;;;;;;;;40.00;33.50;;;;;28.50;53.54;99004.28;6251535;27;96976;-61
2022/08/24 07:12:58;;;;;;;;;31.00;26.20;;;;;28.61;53.20;99013.84;6241827;27;97497;-61
2022/08/24 07:16:02;;;;;;;;;31.40;27.00;;;;;28.66;52.54;99012.81;6264957;27;97177;-60
2022/08/24 07:19:08;;;;;;;;;39.60;33.40;;;;;28.69;53.23;99012.13;6263254;27;97201;-63
2022/08/24 07:22:13;;;;;;;;;36.00;32.00;;;;;28.70;52.67;99011.00;6238691;27;97265;-58
2022/08/24 07:25:18;;;;;;;;;39.00;33.00;;;;;28.72;52.12;99012.31;6220688;28;98807;-57
2022/08/24 07:28:23;;;;;;;;;33.60;30.00;;;;;28.75;51.84;99013.59;6227575;27;98376;-61
2022/08/24 07:31:36;;;;;;;;;28.20;25.80;;;;;28.76;52.26;99013.28;6236966;27;97253;-57
2022/08/24 07:34:49;;;;;;;;;26.80;25.40;;;;;28.80;52.20;99014.22;6250652;27;97395;-60
2022/08/24 07:37:55;;;;;;;;;30.40;28.40;;;;;28.82;51.67;99013.88;6242958;27;97503;-59
2022/08/24 07:40:59;;;;;;;;;30.00;27.00;;;;;28.84;51.69;99012.38;6235415;28;96706;-60
2022/08/24 07:44:23;;;;;;;;;27.50;26.25;;;;;28.86;52.11;99028.69;6239550;27;97297;-57
2022/08/24 07:47:26;;;;;;;;;26.20;23.00;;;;;28.87;51.78;99029.53;6252419;27;97156;-59
2022/08/24 07:50:51;;;;;;;;;27.00;24.60;;;;;28.89;52.06;99019.69;6255777;27;97378;-63
2022/08/24 07:53:56;;;;;;;;;28.75;25.50;;;;;28.89;51.49;99014.13;6246609;27;98366;-61
2022/08/24 07:57:05;;;;;;;;;31.00;27.60;;;;;28.94;51.39;99016.72;6239703;27;97016;-56
2022/08/24 08:00:12;;;;;;;;;25.80;24.00;;;;;29.08;51.34;99028.34;6252678;27;97208;-61
2022/08/24 08:03:25;;;;;;;;;34.60;30.00;;;;;29.15;51.24;99027.78;6254651;27;97513;-60
2022/08/24 08:06:28;;;;;;;;;36.40;31.60;;;;;29.21;50.67;99030.03;6262146;27;97108;-64
2022/08/24 08:09:38;;;;;;;;;30.75;27.50;;;;;29.26;50.58;99023.44;6261279;27;96740;-57
2022/08/24 08:12:43;;;;;;;;;28.20;24.80;;;;;29.22;50.47;99017.75;6253781;27;97188;-63
2022/08/24 08:15:47;;;;;;;;;28.00;22.60;;;;;29.41;50.40;99033.94;6250052;27;97189;-65
2022/08/24 08:18:50;;;;;;;;;29.80;26.00;;;;;29.51;50.38;99032.72;6254519;27;96872;-60
2022/08/24 08:26:14;;;;;;;;;32.50;27.75;;;;;29.71;49.31;99040.94;6230761;27;96866;-62
2022/08/24 08:29:42;;;;;;;;;28.00;26.00;;;;;29.81;49.44;99050.81;6249109;27;96825;-60
2022/08/24 08:32:45;;;;;;;;;27.40;24.80;;;;;29.87;49.12;99035.53;6245102;27;97036;-60
2022/08/24 08:35:51;;;;;;;;;21.20;19.80;;;;;29.97;48.58;99029.56;6249412;27;98159;-61
2022/08/24 08:38:55;;;;;;;;;20.00;18.60;;;;;30.13;48.56;99033.28;6252967;27;97110;-62
2022/08/24 08:42:38;;;;;;;;;23.75;21.75;;;;;30.24;48.16;99039.22;6254951;27;97481;-59
2022/08/24 08:46:05;;;;;;;;;22.20;20.00;;;;;30.33;47.65;99036.31;6241095;27;97197;-60
2022/08/24 08:50:02;;;;;;;;;20.20;16.80;;;;;30.46;47.54;99038.75;6234711;27;97551;-60
2022/08/24 08:53:31;;;;;;;;;29.60;24.60;;;;;30.57;47.68;99043.84;6223844;27;96776;-60
2022/08/24 08:56:46;;;;;;;;;26.00;23.00;;;;;30.64;47.46;99044.88;6240009;27;97409;-61
2022/08/24 09:00:06;;;;;;;;;24.40;22.20;;;;;30.65;46.93;99052.06;6248074;27;98050;-61
2022/08/24 09:03:46;;;;;;;;;25.00;22.00;;;;;30.70;46.77;99045.44;6254412;27;97599;-59
2022/08/24 09:07:32;;;;;;;;;19.00;18.00;;;;;30.72;46.46;99054.25;6273098;27;97611;-60
2022/08/24 09:10:56;;;;;;;;;22.60;20.00;;;;;30.73;45.79;99051.13;6260493;27;96491;-61
2022/08/24 09:14:18;;;;;;;;;20.00;16.00;;;;;30.72;46.28;99045.91;6267810;27;96427;-65
2022/08/24 09:17:51;;;;;;;;;21.00;19.00;;;;;30.72;45.82;99035.59;6252279;27;96941;-59
2022/08/24 09:21:10;;;;;;;;;23.00;22.00;;;;;30.77;46.12;99042.88;6260917;27;97081;-63
2022/08/24 09:24:28;;;;;;;;;25.40;21.40;;;;;30.35;46.31;99001.41;6250576;27;96599;-60
2022/08/24 09:27:53;;;;;;;;;20.00;19.60;;;;;30.99;45.28;99031.19;6259598;27;96599;-62
2022/08/24 09:31:24;;;;;;;;;23.00;21.40;;;;;31.19;45.52;99026.63;6261955;27;97334;-59
2022/08/24 09:34:35;;;;;;;;;25.00;25.00;;;;;31.56;44.77;99019.75;6244661;27;98470;-61
2022/08/24 09:37:58;;;;;;;;;22.00;20.00;;;;;31.98;44.06;99011.69;6255682;27;97181;-64
2022/08/24 09:41:27;;;;;;;;;21.50;19.00;;;;;32.33;43.17;99030.50;6244191;27;98198;-61
2022/08/24 09:45:09;;;;;;;;;22.00;19.60;;;;;32.56;42.20;99023.06;6261809;27;96914;-62
2022/08/24 09:48:32;;;;;;;;;22.33;20.00;;;;;32.66;42.36;99016.94;6255438;27;97482;-64
2022/08/24 09:52:12;;;;;;;;;25.40;23.00;;;;;32.89;42.16;99015.03;6250374;27;97309;-60
2022/08/24 09:55:52;;;;;;;;;27.60;24.40;;;;;33.04;41.58;98999.38;6250270;27;97596;-61
2022/08/24 09:59:15;;;;;;;;;28.00;24.40;;;;;33.15;40.77;99010.78;6245547;27;97080;-60
2022/08/24 10:02:46;;;;;;;;;26.25;23.25;;;;;33.25;40.83;99018.59;6236036;27;96564;-60
2022/08/24 10:06:12;;;;;;;;;23.00;21.60;;;;;33.30;40.79;99023.91;6240219;27;97150;-62
2022/08/24 10:09:49;;;;;;;;;22.40;21.00;;;;;33.30;41.07;99024.72;6236173;27;97481;-60
2022/08/24 10:13:03;;;;;;;;;25.00;23.00;;;;;33.36;40.92;99025.22;6235313;27;97097;-61
2022/08/24 10:16:17;;;;;;;;;25.00;24.00;;;;;33.36;40.64;99028.81;6236612;27;96664;-61
2022/08/24 10:19:47;;;;;;;;;24.50;21.75;;;;;33.37;40.59;99029.63;6247643;27;97516;-62
2022/08/24 10:23:10;;;;;;;;;24.40;20.20;;;;;33.37;40.27;99018.47;6240294;27;97091;-62
2022/08/24 10:26:21;;;;;;;;;23.00;22.00;;;;;33.39;40.45;99016.91;6239918;27;96844;-62
2022/08/24 10:29:42;;;;;;;;;22.60;21.00;;;;;33.39;40.41;99027.25;6240197;27;96493;-61
2022/08/24 10:33:01;;;;;;;;;23.00;22.00;;;;;33.35;40.77;99027.19;6255584;27;97684;-61
2022/08/24 10:36:24;;;;;;;;;24.60;22.60;;;;;33.38;40.59;99028.47;6242847;27;97180;-60
2022/08/24 10:40:07;;;;;;;;;27.00;24.00;;;;;33.39;40.64;99028.06;6239884;27;97533;-61
2022/08/24 10:43:45;;;;;;;;;28.50;26.00;;;;;33.51;40.85;99027.13;6239405;27;97764;-60
2022/08/24 10:46:51;;;;;;;;;21.33;20.00;;;;;33.61;40.02;99029.31;6246666;27;97577;-63
2022/08/24 10:50:33;;;;;;;;;23.50;21.00;;;;;33.74;39.52;99021.56;6261447;27;96965;-61
2022/08/24 10:53:37;;;;;;;;;21.25;19.25;;;;;33.79;39.59;99007.28;6239539;27;96793;-61
2022/08/24 10:56:51;;;;;;;;;23.50;19.00;;;;;34.19;39.08;99015.19;6239606;27;97876;-58
2022/08/24 11:00:06;;;;;;;;;20.00;18.00;;;;;34.47;39.07;99015.59;6253806;27;97427;-65
2022/08/24 11:03:14;;;;;;;;;21.00;16.40;;;;;34.73;38.09;99009.22;6236775;28;98641;-62
2022/08/24 11:06:19;;;;;;;;;19.00;18.60;;;;;34.92;37.96;99003.47;6238442;27;97359;-59
2022/08/24 11:09:22;;;;;;;;;22.75;21.75;;;;;35.07;37.29;98994.06;6238922;27;96780;-60
2022/08/24 11:12:29;;;;;;;;;20.00;18.80;;;;;35.21;37.59;99001.84;6237653;27;97161;-62
2022/08/24 11:15:48;;;;;;;;;17.00;15.50;;;;;35.29;37.19;99000.72;6241659;27;97445;-62
2022/08/24 11:18:53;;;;;;;;;20.00;18.00;;;;;35.29;37.02;98997.13;6237622;27;97011;-65
2022/08/24 11:22:00;;;;;;;;;19.80;18.00;;;;;35.30;36.19;99002.34;6238574;27;97882;-62
2022/08/24 11:25:13;;;;;;;;;18.00;17.60;;;;;35.29;36.72;98997.91;6236764;28;97457;-59
2022/08/24 11:28:23;;;;;;;;;21.50;20.50;;;;;35.33;36.65;98993.19;6237276;27;97589;-61
2022/08/24 11:31:33;;;;;;;;;20.20;18.00;;;;;35.36;36.51;98995.22;6237664;27;97011;-63
2022/08/24 11:34:38;;;;;;;;;21.00;19.00;;;;;35.30;37.27;98987.53;6236746;27;98451;-64
2022/08/24 11:37:42;;;;;;;;;21.60;20.00;;;;;35.35;37.18;98995.59;6236999;27;99540;-61
2022/08/24 11:40:53;;;;;;;;;20.00;19.75;;;;;35.32;36.99;98993.56;6248165;27;97826;-62
2022/08/24 11:44:02;;;;;;;;;21.00;20.00;;;;;35.20;36.92;98972.19;6248066;27;97364;-62
2022/08/24 11:47:27;;;;;;;;;23.00;21.00;;;;;35.43;37.28;98997.28;6244099;27;96657;-61
2022/08/24 11:50:38;;;;;;;;;23.20;19.60;;;;;35.50;36.33;98998.16;6239706;27;98224;-61
2022/08/24 11:53:58;;;;;;;;;21.75;20.00;;;;;35.57;36.63;99000.25;6236759;27;97734;-62
2022/08/24 11:57:11;;;;;;;;;22.50;19.75;;;;;35.42;36.27;98970.44;6243389;27;96626;-65
2022/08/24 12:00:17;;;;;;;;;21.60;20.00;;;;;35.68;36.33;98997.59;6243672;27;96596;-63
2022/08/24 12:03:42;;;;;;;;;21.00;19.00;;;;;35.73;36.07;99000.81;6236533;28;96938;-65
2022/08/24 12:06:58;;;;;;;;;22.00;20.00;;;;;35.79;36.29;99004.06;6237717;27;97577;-65
2022/08/24 12:10:17;;;;;;;;;25.60;23.40;;;;;35.88;36.33;98998.94;6237783;27;97515;-63
2022/08/24 12:13:32;;;;;;;;;22.00;20.00;;;;;35.95;36.22;99005.44;6238058;27;96821;-62
2022/08/24 12:16:43;;;;;;;;;22.50;21.00;;;;;36.00;35.82;99002.28;6251155;27;97361;-59
2022/08/24 12:19:51;;;;;;;;;21.60;21.20;;;;;36.01;35.94;99005.88;6240909;27;96673;-61
2022/08/24 12:23:00;;;;;;;;;23.00;20.80;;;;;35.98;36.12;99009.44;6237457;27;96648;-61
2022/08/24 12:26:09;;;;;;;;;20.40;20.00;;;;;35.89;36.17;98997.75;6237336;27;97461;-61
2022/08/24 12:29:18;;;;;;;;;24.00;21.00;;;;;35.87;36.12;99003.75;6235954;27;96941;-61
2022/08/24 12:32:26;;;;;;;;;24.00;20.00;;;;;35.81;36.26;99004.50;6248189;27;96996;-62
2022/08/24 12:35:37;;;;;;;;;23.00;22.33;;;;;35.71;36.32;99005.22;6243514;27;97367;-60
2022/08/24 12:38:48;;;;;;;;;24.00;21.00;;;;;35.59;36.37;99003.44;6237390;27;96886;-61
2022/08/24 12:42:04;;;;;;;;;22.20;21.20;;;;;35.50;36.51;98995.34;6235143;27;97043;-60
2022/08/24 12:45:11;;;;;;;;;23.00;22.00;;;;;35.30;36.43;98984.72;6241535;27;98831;-64
2022/08/24 12:48:21;;;;;;;;;23.80;22.00;;;;;35.32;36.85;99001.97;6249356;27;97165;-61
2022/08/24 12:51:45;;;;;;;;;26.00;24.00;;;;;35.20;36.57;98997.41;6236036;27;97500;-59
2022/08/24 12:55:17;;;;;;;;;27.50;24.00;;;;;35.06;37.24;99005.63;6243741;27;96767;-63
2022/08/24 12:58:50;;;;;;;;;28.20;23.60;;;;;34.91;37.61;99003.84;6240104;27;97342;-61
2022/08/24 13:02:01;;;;;;;;;22.75;21.75;;;;;34.76;37.76;99009.25;6262488;27;97009;-63
2022/08/24 13:05:11;;;;;;;;;23.00;22.60;;;;;34.64;38.02;99000.25;6253961;27;97476;-62
2022/08/24 13:08:32;;;;;;;;;24.00;20.33;;;;;34.35;37.93;98960.66;6262360;27;97595;-65
2022/08/24 13:11:36;;;;;;;;;24.00;23.00;;;;;34.39;38.44;98990.69;6262160;27;97618;-61
2022/08/24 13:14:49;;;;;;;;;25.40;22.40;;;;;34.26;38.43;98985.28;6254505;27;96581;-61
2022/08/24 13:17:59;;;;;;;;;27.00;24.00;;;;;34.19;39.21;98982.41;6247937;27;97455;-59
2022/08/24 13:21:16;;;;;;;;;23.60;22.40;;;;;34.10;38.94;98981.84;6248074;27;97527;-62
2022/08/24 13:25:07;;;;;;;;;28.80;25.20;;;;;33.99;39.68;98978.06;6273377;27;97490;-60
2022/08/24 13:28:32;;;;;;;;;21.00;20.25;;;;;33.77;40.05;98976.88;6226800;27;97474;-63
2022/08/24 13:31:41;;;;;;;;;25.00;23.00;;;;;33.67;40.23;98971.94;6261865;27;97032;-59
2022/08/24 13:34:47;;;;;;;;;23.60;22.00;;;;;33.64;40.55;98958.66;6259544;27;97921;-63
2022/08/24 13:38:30;;;;;;;;;25.50;24.00;;;;;33.70;40.36;98953.59;6260096;27;98815;-59
2022/08/24 13:41:53;;;;;;;;;24.33;21.33;;;;;33.81;40.28;98949.81;6261695;27;96707;-60
2022/08/24 13:45:15;;;;;;;;;29.50;24.50;;;;;33.97;40.30;98937.63;6252259;27;97469;-62
2022/08/24 13:48:29;;;;;;;;;24.20;23.20;;;;;34.13;40.04;98935.50;6245677;27;97045;-60
2022/08/24 13:51:41;;;;;;;;;29.00;26.40;;;;;34.27;39.66;98930.13;6261643;27;97129;-58
2022/08/24 13:55:01;;;;;;;;;23.50;23.00;;;;;34.35;39.30;98929.06;6262672;27;97627;-59
2022/08/24 13:58:19;;;;;;;;;21.00;18.60;;;;;34.41;39.31;98923.91;6251555;27;97147;-63
2022/08/24 14:01:33;;;;;;;;;25.40;23.40;;;;;34.48;39.34;98924.03;6266112;27;97490;-61
2022/08/24 14:04:45;;;;;;;;;24.20;22.20;;;;;34.53;39.03;98926.50;6259174;27;97446;-65
2022/08/24 14:07:56;;;;;;;;;23.00;21.00;;;;;34.59;39.12;98919.38;6239174;28;98798;-59
2022/08/24 14:11:08;;;;;;;;;18.60;17.00;;;;;34.69;39.43;98913.16;6265012;27;97461;-60
2022/08/24 14:14:21;;;;;;;;;25.60;23.60;;;;;34.80;38.66;98907.69;6263658;27;96954;-62
2022/08/24 14:17:54;;;;;;;;;22.40;20.40;;;;;34.86;38.90;98903.31;6242753;27;97169;-60
2022/08/24 14:21:07;;;;;;;;;23.00;21.00;;;;;34.96;38.84;98908.25;6263996;27;96703;-59
2022/08/24 14:24:25;;;;;;;;;21.40;20.40;;;;;35.04;38.45;98905.13;6252132;27;96273;-61
2022/08/24 14:27:39;;;;;;;;;19.80;19.00;;;;;35.13;38.98;98905.66;6265984;27;96979;-62
2022/08/24 14:30:46;;;;;;;;;24.00;21.40;;;;;35.20;38.91;98897.34;6265067;27;97362;-62
2022/08/24 14:34:15;;;;;;;;;25.75;22.75;;;;;35.26;38.50;98889.38;6263980;27;97081;-63
2022/08/24 14:37:23;;;;;;;;;27.00;23.00;;;;;35.28;38.47;98895.41;6250868;27;96672;-59
2022/08/24 14:40:32;;;;;;;;;24.40;22.00;;;;;35.27;39.02;98902.22;6247823;27;96576;-60
2022/08/24 14:44:07;;;;;;;;;26.00;23.00;;;;;35.30;39.26;98912.66;6249744;27;96815;-59
2022/08/24 14:47:22;;;;;;;;;29.00;27.00;;;;;35.27;38.51;98907.00;6238693;27;97346;-60
2022/08/24 14:50:37;;;;;;;;;26.60;25.60;;;;;35.22;38.26;98915.78;6240758;27;97238;-62